Time;durP1;ratioP1;P1;durP2;ratioP2;P2;SDS_P1;SDS_P2;PMS_P1;PMS_P2;Temp;Humidity;BMP_temperature;BMP_pressure;BME280_temperature;BME280_humidity;BME280_pressure;Samples;Min_cycle;Max_cycle;Signal;HPM_P1;HPM_P2
2021/04/03 00:00:19;;;;;;;;;16.25;15.00;;;;;;;;3545938;39;111824;-72
2021/04/03 00:02:46;;;;;;;;;12.25;12.25;;;;;;;;3546281;39;114013;-71
2021/04/03 00:05:12;;;;;;;;;12.25;11.00;;;;;;;;3545429;39;114070;-72
2021/04/03 00:07:38;;;;;;;;;15.00;13.50;;;;;;;;3546811;39;111969;-72
2021/04/03 00:10:05;;;;;;;;;15.50;12.50;;;;;;;;3545358;39;113601;-72
2021/04/03 00:12:31;;;;;;;;;16.00;13.25;;;;;;;;3546660;39;113986;-72
2021/04/03 00:14:57;;;;;;;;;16.75;15.00;;;;;;;;3543398;39;112088;-72
2021/04/03 00:17:24;;;;;;;;;14.50;12.50;;;;;;;;3546680;39;113907;-71
2021/04/03 00:19:54;;;;;;;;;15.25;15.25;;;;;;;;3548129;39;114427;-71
2021/04/03 00:22:21;;;;;;;;;18.25;16.00;;;;;;;;3546358;39;113653;-70
2021/04/03 00:24:47;;;;;;;;;13.25;12.00;;;;;;;;3545884;39;114203;-71
2021/04/03 00:27:13;;;;;;;;;14.25;14.00;;;;;;;;3545904;39;111886;-71
2021/04/03 00:29:39;;;;;;;;;11.75;11.00;;;;;;;;3546827;39;113606;-71
2021/04/03 00:32:05;;;;;;;;;15.00;15.00;;;;;;;;3544580;39;113969;-71
2021/04/03 00:34:32;;;;;;;;;13.50;13.50;;;;;;;;3545731;39;111981;-71
2021/04/03 00:36:58;;;;;;;;;15.75;13.50;;;;;;;;3547314;39;114037;-71
2021/04/03 00:39:24;;;;;;;;;15.75;13.00;;;;;;;;3545532;39;114573;-71
2021/04/03 00:41:51;;;;;;;;;13.25;13.25;;;;;;;;3548932;39;112850;-72
2021/04/03 00:44:17;;;;;;;;;17.50;15.25;;;;;;;;3545197;39;113933;-72
2021/04/03 00:46:43;;;;;;;;;13.25;13.25;;;;;;;;3547884;39;111990;-72
2021/04/03 00:49:09;;;;;;;;;13.00;13.00;;;;;;;;3546374;39;113305;-71
2021/04/03 00:51:36;;;;;;;;;15.50;14.00;;;;;;;;3544935;39;114176;-71
2021/04/03 00:54:02;;;;;;;;;14.25;13.50;;;;;;;;3545399;39;111780;-71
2021/04/03 00:56:29;;;;;;;;;15.00;13.75;;;;;;;;3545028;39;113912;-71
2021/04/03 00:58:55;;;;;;;;;14.25;13.00;;;;;;;;3545918;39;114075;-71
2021/04/03 01:01:21;;;;;;;;;15.00;14.00;;;;;;;;3547317;39;111991;-71
2021/04/03 01:03:47;;;;;;;;;15.75;14.00;;;;;;;;3545116;39;113955;-72
2021/04/03 01:06:13;;;;;;;;;17.25;15.25;;;;;;;;3546195;39;111997;-70
2021/04/03 01:08:40;;;;;;;;;14.50;14.00;;;;;;;;3545104;39;114047;-71
2021/04/03 01:11:07;;;;;;;;;17.50;15.25;;;;;;;;3546086;39;113983;-71
2021/04/03 01:13:39;;;;;;;;;16.75;13.25;;;;;;;;3545024;39;111836;-72
2021/04/03 01:16:08;;;;;;;;;15.25;15.25;;;;;;;;3546694;39;113777;-71
2021/04/03 01:18:39;;;;;;;;;18.25;13.25;;;;;;;;3544337;39;114318;-71
2021/04/03 01:21:08;;;;;;;;;13.25;13.25;;;;;;;;3544978;39;111839;-71
2021/04/03 01:23:49;;;;;;;;;14.25;13.00;;;;;;;;3547163;39;113475;-72
2021/04/03 01:26:32;;;;;;;;;17.00;14.75;;;;;;;;3545668;39;112212;-72
2021/04/03 01:29:08;;;;;;;;;16.75;15.50;;;;;;;;3543071;39;112311;-72
2021/04/03 01:31:36;;;;;;;;;14.50;14.00;;;;;;;;3544661;39;114245;-70
2021/04/03 01:34:02;;;;;;;;;13.75;13.75;;;;;;;;3544422;39;111796;-71
2021/04/03 01:36:29;;;;;;;;;13.50;12.00;;;;;;;;3547389;39;113450;-71
2021/04/03 01:38:57;;;;;;;;;13.50;11.25;;;;;;;;3546196;39;114002;-71
2021/04/03 01:41:25;;;;;;;;;12.50;12.50;;;;;;;;3545384;39;112512;-71
2021/04/03 01:43:52;;;;;;;;;13.50;12.75;;;;;;;;3546466;39;114234;-70
2021/04/03 01:46:21;;;;;;;;;14.00;14.00;;;;;;;;3547847;39;112885;-70
2021/04/03 01:48:50;;;;;;;;;14.50;13.25;;;;;;;;3545038;39;112585;-70
2021/04/03 01:51:16;;;;;;;;;14.25;14.25;;;;;;;;3545384;39;114437;-70
2021/04/03 01:53:43;;;;;;;;;14.00;13.00;;;;;;;;3546633;39;112273;-70
2021/04/03 01:56:10;;;;;;;;;9.75;7.75;;;;;;;;3545542;39;113468;-70
2021/04/03 01:58:37;;;;;;;;;15.25;14.00;;;;;;;;3544080;39;112908;-70
2021/04/03 02:01:05;;;;;;;;;15.25;13.00;;;;;;;;3544914;39;111801;-70
2021/04/03 02:03:32;;;;;;;;;13.00;12.00;;;;;;;;3544782;39;113483;-69
2021/04/03 02:05:59;;;;;;;;;14.75;14.00;;;;;;;;3545853;39;113920;-70
2021/04/03 02:08:27;;;;;;;;;14.75;13.75;;;;;;;;3547383;39;112336;-70
2021/04/03 02:10:53;;;;;;;;;13.25;12.75;;;;;;;;3544957;39;114111;-72
2021/04/03 02:13:20;;;;;;;;;13.75;13.25;;;;;;;;3545258;39;112511;-71
2021/04/03 02:15:47;;;;;;;;;15.00;13.00;;;;;;;;3545084;39;113469;-70
2021/04/03 02:18:14;;;;;;;;;12.25;12.25;;;;;;;;3545021;39;114316;-71
2021/04/03 02:20:40;;;;;;;;;15.00;14.00;;;;;;;;3544550;39;112270;-70
2021/04/03 02:23:07;;;;;;;;;13.75;13.75;;;;;;;;3545987;39;113751;-70
2021/04/03 02:25:34;;;;;;;;;18.25;12.75;;;;;;;;3544001;39;114001;-71
2021/04/03 02:28:00;;;;;;;;;13.00;12.25;;;;;;;;3542007;39;111716;-71
2021/04/03 02:30:26;;;;;;;;;11.00;8.00;;;;;;;;3548141;39;113674;-71
2021/04/03 02:32:54;;;;;;;;;15.25;13.25;;;;;;;;3544724;39;112091;-70
2021/04/03 02:35:20;;;;;;;;;12.75;12.75;;;;;;;;3545447;39;113416;-70
2021/04/03 02:37:47;;;;;;;;;13.00;12.50;;;;;;;;3544655;39;114694;-69
2021/04/03 02:40:16;;;;;;;;;13.00;13.00;;;;;;;;3544544;39;111979;-69
2021/04/03 02:42:49;;;;;;;;;14.50;11.75;;;;;;;;3545689;39;113006;-70
2021/04/03 02:45:18;;;;;;;;;13.75;13.00;;;;;;;;3542349;39;112889;-70
2021/04/03 02:47:45;;;;;;;;;13.25;12.00;;;;;;;;3545732;39;111865;-69
2021/04/03 02:50:14;;;;;;;;;14.00;14.00;;;;;;;;3544673;39;113618;-70
2021/04/03 02:52:42;;;;;;;;;14.67;11.33;;;;;;;;3547984;39;114444;-69
2021/04/03 02:55:09;;;;;;;;;13.67;12.00;;;;;;;;3544527;39;112691;-69
2021/04/03 02:57:37;;;;;;;;;13.25;12.00;;;;;;;;3545214;39;113934;-69
2021/04/03 03:00:05;;;;;;;;;12.00;11.00;;;;;;;;3544170;39;112243;-70
2021/04/03 03:02:33;;;;;;;;;15.33;13.00;;;;;;;;3545422;39;113498;-70
2021/04/03 03:05:00;;;;;;;;;14.67;13.00;;;;;;;;3545397;39;114345;-69
2021/04/03 03:07:26;;;;;;;;;15.67;12.33;;;;;;;;3547546;39;113843;-69
2021/04/03 03:09:53;;;;;;;;;12.67;10.33;;;;;;;;3544591;39;112353;-69
2021/04/03 03:12:21;;;;;;;;;12.75;11.25;;;;;;;;3549323;39;114152;-70
2021/04/03 03:14:49;;;;;;;;;15.33;15.33;;;;;;;;3546391;39;113530;-70
2021/04/03 03:17:16;;;;;;;;;12.00;11.00;;;;;;;;3546174;39;114192;-71
2021/04/03 03:19:42;;;;;;;;;12.67;12.00;;;;;;;;3546797;39;112280;-70
2021/04/03 03:22:09;;;;;;;;;14.00;13.00;;;;;;;;3546672;39;113855;-70
2021/04/03 03:24:35;;;;;;;;;8.33;8.00;;;;;;;;3545358;39;114193;-70
2021/04/03 03:27:01;;;;;;;;;13.00;12.67;;;;;;;;3547112;39;111899;-71
2021/04/03 03:29:28;;;;;;;;;15.33;13.33;;;;;;;;3545861;39;113580;-70
2021/04/03 03:31:55;;;;;;;;;14.67;11.67;;;;;;;;3546539;39;114333;-69
2021/04/03 03:34:21;;;;;;;;;11.33;10.67;;;;;;;;3547303;39;112223;-70
2021/04/03 03:36:48;;;;;;;;;12.00;12.00;;;;;;;;3546284;39;114413;-69
2021/04/03 03:39:14;;;;;;;;;14.00;12.67;;;;;;;;3546456;39;112232;-69
2021/04/03 03:41:41;;;;;;;;;12.67;12.00;;;;;;;;3546373;39;113547;-70
2021/04/03 03:44:07;;;;;;;;;14.00;12.33;;;;;;;;3546819;39;114133;-70
2021/04/03 03:46:34;;;;;;;;;14.67;12.00;;;;;;;;3547631;39;112333;-69
2021/04/03 03:49:01;;;;;;;;;14.00;13.00;;;;;;;;3546272;39;113465;-69
2021/04/03 03:51:27;;;;;;;;;13.33;12.67;;;;;;;;3546614;39;114322;-70
2021/04/03 03:53:53;;;;;;;;;11.67;11.67;;;;;;;;3545807;39;113678;-72
2021/04/03 03:56:19;;;;;;;;;11.00;9.00;;;;;;;;3547756;39;113660;-69
2021/04/03 03:58:45;;;;;;;;;15.67;14.67;;;;;;;;3546527;39;111827;-70
2021/04/03 04:01:11;;;;;;;;;13.67;12.33;;;;;;;;3546476;39;113762;-71
2021/04/03 04:03:37;;;;;;;;;12.00;11.33;;;;;;;;3545099;39;114646;-70
2021/04/03 04:06:05;;;;;;;;;17.67;13.67;;;;;;;;3547076;39;112136;-69
2021/04/03 04:08:31;;;;;;;;;18.67;15.33;;;;;;;;3545225;39;114241;-72
2021/04/03 04:10:57;;;;;;;;;16.00;13.00;;;;;;;;3546776;39;114015;-70
2021/04/03 04:13:23;;;;;;;;;16.00;15.00;;;;;;;;3545347;39;111903;-70
2021/04/03 04:15:49;;;;;;;;;14.00;13.00;;;;;;;;3546391;39;113488;-70
2021/04/03 04:18:15;;;;;;;;;14.00;13.33;;;;;;;;3548117;39;113979;-70
2021/04/03 04:20:41;;;;;;;;;12.00;12.00;;;;;;;;3545687;39;113465;-69
2021/04/03 04:23:08;;;;;;;;;11.67;9.67;;;;;;;;3546275;39;113806;-71
2021/04/03 04:25:34;;;;;;;;;15.33;13.33;;;;;;;;3545393;39;112071;-70
2021/04/03 04:28:00;;;;;;;;;16.67;13.67;;;;;;;;3546691;39;113652;-70
2021/04/03 04:30:27;;;;;;;;;16.00;13.67;;;;;;;;3544961;39;115022;-70
2021/04/03 04:32:53;;;;;;;;;14.00;14.00;;;;;;;;3546411;39;112279;-69
2021/04/03 04:35:19;;;;;;;;;11.00;11.00;;;;;;;;3545949;39;113912;-70
2021/04/03 04:37:46;;;;;;;;;12.33;11.33;;;;;;;;3545658;39;113920;-70
2021/04/03 04:40:14;;;;;;;;;18.00;17.00;;;;;;;;3548628;39;113951;-69
2021/04/03 04:42:40;;;;;;;;;13.00;13.00;;;;;;;;3545118;39;114095;-70
2021/04/03 04:45:07;;;;;;;;;16.00;12.00;;;;;;;;3546211;39;113124;-70
2021/04/03 04:47:33;;;;;;;;;15.33;11.67;;;;;;;;3545449;39;113535;-70
2021/04/03 04:49:59;;;;;;;;;13.67;12.00;;;;;;;;3544206;39;112828;-70
2021/04/03 04:52:25;;;;;;;;;18.33;14.33;;;;;;;;3542946;39;112103;-70
2021/04/03 04:54:51;;;;;;;;;12.00;12.00;;;;;;;;3546337;39;113783;-68
2021/04/03 04:57:18;;;;;;;;;13.33;12.33;;;;;;;;3543007;39;113002;-70
2021/04/03 04:59:44;;;;;;;;;16.00;13.67;;;;;;;;3546106;39;111747;-69
2021/04/03 05:02:10;;;;;;;;;14.00;13.33;;;;;;;;3548180;39;112968;-71
2021/04/03 05:04:36;;;;;;;;;15.00;13.33;;;;;;;;3545070;39;112909;-70
2021/04/03 05:07:02;;;;;;;;;16.67;15.67;;;;;;;;3546546;39;113649;-71
2021/04/03 05:09:28;;;;;;;;;13.67;13.00;;;;;;;;3544287;39;113909;-70
2021/04/03 05:11:54;;;;;;;;;16.67;14.67;;;;;;;;3547236;39;113334;-70
2021/04/03 05:14:21;;;;;;;;;20.00;17.67;;;;;;;;3544734;39;113552;-71
2021/04/03 05:16:47;;;;;;;;;24.00;18.00;;;;;;;;3543124;39;114296;-71
2021/04/03 05:19:13;;;;;;;;;17.00;17.00;;;;;;;;3546466;39;111721;-71
2021/04/03 05:21:39;;;;;;;;;18.33;17.00;;;;;;;;3547016;39;113643;-71
2021/04/03 05:24:06;;;;;;;;;21.67;18.33;;;;;;;;3549814;39;112054;-70
2021/04/03 05:26:32;;;;;;;;;22.67;21.00;;;;;;;;3550135;39;114301;-69
2021/04/03 05:28:58;;;;;;;;;17.00;14.33;;;;;;;;3549552;39;116024;-71
2021/04/03 05:31:25;;;;;;;;;18.00;16.67;;;;;;;;3549371;39;111991;-71
2021/04/03 05:33:51;;;;;;;;;19.00;16.00;;;;;;;;3549716;39;113605;-70
2021/04/03 05:36:17;;;;;;;;;19.67;18.33;;;;;;;;3549859;39;114702;-70
2021/04/03 05:38:43;;;;;;;;;17.00;16.67;;;;;;;;3549803;39;112621;-77
2021/04/03 05:41:09;;;;;;;;;15.67;15.00;;;;;;;;3549702;39;113548;-77
2021/04/03 05:43:36;;;;;;;;;15.67;15.00;;;;;;;;3552315;39;114489;-76
2021/04/03 05:46:03;;;;;;;;;15.33;15.33;;;;;;;;3548158;39;113357;-76
2021/04/03 05:48:29;;;;;;;;;18.00;13.67;;;;;;;;3547661;39;114009;-75
2021/04/03 05:50:56;;;;;;;;;18.33;16.00;;;;;;;;3549793;39;112700;-77
2021/04/03 05:53:22;;;;;;;;;18.00;14.67;;;;;;;;3546271;39;113569;-79
2021/04/03 05:55:51;;;;;;;;;15.67;15.67;;;;;;;;3545618;39;115153;-76
2021/04/03 05:58:17;;;;;;;;;19.00;17.00;;;;;;;;3545058;39;111890;-76
2021/04/03 06:00:43;;;;;;;;;14.67;14.67;;;;;;;;3545604;39;113930;-74
2021/04/03 06:03:09;;;;;;;;;15.33;13.00;;;;;;;;3544885;39;114325;-74
2021/04/03 06:05:36;;;;;;;;;17.00;14.00;;;;;;;;3547437;39;112552;-76
2021/04/03 06:08:02;;;;;;;;;23.67;17.67;;;;;;;;3545430;39;114080;-77
2021/04/03 06:10:28;;;;;;;;;18.33;17.00;;;;;;;;3544314;39;111889;-76
2021/04/03 06:12:54;;;;;;;;;12.33;11.67;;;;;;;;3546016;39;113891;-75
2021/04/03 06:15:34;;;;;;;;;13.33;12.00;;;;;;;;3544266;39;114093;-76
2021/04/03 06:18:01;;;;;;;;;20.00;18.33;;;;;;;;3544215;39;114041;-76
2021/04/03 06:20:29;;;;;;;;;18.00;16.00;;;;;;;;3545985;39;113502;-75
2021/04/03 06:22:56;;;;;;;;;13.33;13.00;;;;;;;;3543439;39;114660;-78
2021/04/03 06:25:22;;;;;;;;;11.67;11.67;;;;;;;;3545735;39;112007;-76
2021/04/03 06:27:48;;;;;;;;;19.00;17.00;;;;;;;;3547015;39;113512;-76
2021/04/03 06:30:29;;;;;;;;;18.33;17.00;;;;;;;;3545043;39;111961;-77
2021/04/03 06:32:56;;;;;;;;;19.33;18.33;;;;;;;;3543964;39;113184;-77
2021/04/03 06:35:23;;;;;;;;;18.33;16.33;;;;;;;;3546125;39;114330;-78
2021/04/03 06:37:52;;;;;;;;;23.00;21.00;;;;;;;;3546328;39;111826;-82
2021/04/03 06:40:20;;;;;;;;;18.00;17.33;;;;;;;;3547244;39;113436;-76
2021/04/03 06:42:46;;;;;;;;;18.67;14.67;;;;;;;;3545958;39;114291;-77
2021/04/03 06:45:19;;;;;;;;;22.67;19.00;;;;;;;;3546429;39;111993;-78
2021/04/03 06:47:46;;;;;;;;;17.00;17.00;;;;;;;;3546634;39;113637;-77
2021/04/03 06:50:13;;;;;;;;;22.00;20.33;;;;;;;;3548624;39;114131;-78
2021/04/03 06:52:40;;;;;;;;;21.33;18.00;;;;;;;;3547160;39;114853;-78
2021/04/03 06:55:07;;;;;;;;;22.67;18.00;;;;;;;;3545598;39;112952;-77
2021/04/03 06:57:34;;;;;;;;;17.33;17.00;;;;;;;;3547762;39;111881;-77
2021/04/03 07:00:01;;;;;;;;;16.67;13.00;;;;;;;;3545898;39;113504;-77
2021/04/03 07:02:29;;;;;;;;;19.67;17.33;;;;;;;;3545145;39;114175;-77
2021/04/03 07:04:55;;;;;;;;;11.67;11.67;;;;;;;;3545910;39;112031;-77
2021/04/03 07:07:21;;;;;;;;;19.33;16.67;;;;;;;;3547025;39;113986;-74
2021/04/03 07:09:48;;;;;;;;;18.00;18.00;;;;;;;;3545983;39;113924;-75
2021/04/03 07:12:14;;;;;;;;;21.67;19.00;;;;;;;;3549350;39;111787;-76
2021/04/03 07:14:41;;;;;;;;;17.00;16.33;;;;;;;;3546029;39;113877;-75
2021/04/03 07:17:08;;;;;;;;;23.00;19.67;;;;;;;;3546410;39;112528;-77
2021/04/03 07:19:36;;;;;;;;;19.33;19.00;;;;;;;;3547089;39;112992;-80
2021/04/03 07:22:03;;;;;;;;;19.33;17.67;;;;;;;;3545259;39;114474;-80
2021/04/03 07:24:30;;;;;;;;;29.00;20.67;;;;;;;;3547562;39;111742;-80
2021/04/03 07:26:56;;;;;;;;;21.00;20.00;;;;;;;;3545684;39;113483;-78
2021/04/03 07:29:41;;;;;;;;;20.50;18.00;;;;;;;;3547046;39;113877;-80
2021/04/03 07:32:08;;;;;;;;;24.00;20.00;;;;;;;;3549144;39;111821;-78
2021/04/03 07:34:39;;;;;;;;;23.00;19.00;;;;;;;;3546634;39;113981;-79
2021/04/03 07:37:08;;;;;;;;;24.00;23.33;;;;;;;;3545616;39;113005;-77
2021/04/03 07:39:35;;;;;;;;;20.25;18.50;;;;;;;;3547080;39;113841;-78
2021/04/03 07:42:01;;;;;;;;;20.00;20.00;;;;;;;;3544849;39;114215;-77
2021/04/03 07:44:33;;;;;;;;;16.25;15.25;;;;;;;;3545514;39;111892;-78
2021/04/03 07:47:16;;;;;;;;;26.67;22.00;;;;;;;;3545939;39;113062;-76
2021/04/03 07:49:43;;;;;;;;;25.33;24.00;;;;;;;;3547198;39;113948;-79
2021/04/03 07:52:09;;;;;;;;;29.00;26.00;;;;;;;;3545195;39;111866;-78
2021/04/03 07:54:36;;;;;;;;;21.50;21.50;;;;;;;;3550315;39;113386;-76
2021/04/03 07:57:03;;;;;;;;;20.00;18.50;;;;;;;;3545696;39;113637;-74
2021/04/03 08:00:00;;;;;;;;;26.25;24.00;;;;;;;;3546982;39;114139;-72
2021/04/03 08:02:27;;;;;;;;;28.25;21.75;;;;;;;;3544581;39;114023;-73
2021/04/03 08:04:56;;;;;;;;;24.00;23.50;;;;;;;;3546928;39;111944;-74
2021/04/03 08:07:24;;;;;;;;;26.75;22.00;;;;;;;;3545584;39;113441;-76
2021/04/03 08:09:50;;;;;;;;;35.67;33.33;;;;;;;;3546351;39;114001;-72
2021/04/03 08:12:20;;;;;;;;;27.75;25.75;;;;;;;;3545896;39;111675;-71
2021/04/03 08:14:50;;;;;;;;;27.67;23.00;;;;;;;;3546269;39;113295;-77
2021/04/03 08:17:20;;;;;;;;;29.25;26.75;;;;;;;;3548166;39;114047;-81
2021/04/03 08:19:46;;;;;;;;;29.67;26.67;;;;;;;;3546193;39;114198;-77
2021/04/03 08:22:13;;;;;;;;;30.25;25.25;;;;;;;;3545581;39;114302;-78
2021/04/03 08:24:39;;;;;;;;;26.00;26.00;;;;;;;;3546057;39;111890;-79
2021/04/03 08:27:07;;;;;;;;;30.00;27.25;;;;;;;;3546736;39;114082;-83
2021/04/03 08:29:37;;;;;;;;;26.25;26.00;;;;;;;;3545134;39;112808;-83
2021/04/03 08:32:04;;;;;;;;;31.25;28.75;;;;;;;;3546310;39;112319;-82
2021/04/03 08:34:31;;;;;;;;;29.50;27.00;;;;;;;;3545516;39;113359;-82
2021/04/03 08:36:58;;;;;;;;;29.25;27.00;;;;;;;;3546184;39;113115;-79
2021/04/03 08:39:25;;;;;;;;;25.00;23.25;;;;;;;;3548363;39;112086;-82
2021/04/03 08:41:53;;;;;;;;;24.50;24.00;;;;;;;;3545941;39;114375;-81
2021/04/03 08:44:20;;;;;;;;;22.75;21.00;;;;;;;;3545241;39;111883;-80
2021/04/03 08:46:48;;;;;;;;;27.25;25.00;;;;;;;;3546149;39;113869;-75
2021/04/03 08:49:21;;;;;;;;;28.25;24.00;;;;;;;;3545123;39;114058;-76
2021/04/03 08:51:47;;;;;;;;;20.00;19.75;;;;;;;;3546155;39;112354;-83
2021/04/03 08:54:14;;;;;;;;;22.75;21.75;;;;;;;;3545902;39;113669;-73
2021/04/03 08:56:41;;;;;;;;;21.75;20.00;;;;;;;;3544546;39;113244;-76
2021/04/03 08:59:08;;;;;;;;;23.25;23.25;;;;;;;;3543359;39;112199;-76
2021/04/03 09:01:35;;;;;;;;;19.50;18.00;;;;;;;;3548223;39;113310;-78
2021/04/03 09:04:04;;;;;;;;;25.00;22.75;;;;;;;;3545032;39;111757;-76
2021/04/03 09:06:41;;;;;;;;;28.25;23.75;;;;;;;;3546236;39;112154;-75
2021/04/03 09:09:07;;;;;;;;;21.75;20.25;;;;;;;;3544725;39;114022;-75
2021/04/03 09:11:33;;;;;;;;;21.50;20.50;;;;;;;;3546144;39;112165;-78
2021/04/03 09:14:00;;;;;;;;;20.00;18.50;;;;;;;;3544912;39;113956;-77
2021/04/03 09:16:34;;;;;;;;;25.00;24.00;;;;;;;;3545525;39;114191;-74
2021/04/03 09:19:01;;;;;;;;;19.25;19.25;;;;;;;;3542695;39;111916;-72
2021/04/03 09:21:27;;;;;;;;;16.75;16.75;;;;;;;;3545241;39;113765;-73
2021/04/03 09:23:53;;;;;;;;;19.50;19.00;;;;;;;;3545503;39;112400;-74
2021/04/03 09:26:30;;;;;;;;;20.75;17.75;;;;;;;;3545327;39;113662;-75
2021/04/03 09:29:03;;;;;;;;;24.75;24.75;;;;;;;;3543111;39;114037;-74
2021/04/03 09:31:37;;;;;;;;;20.00;19.00;;;;;;;;3544304;39;111697;-73
2021/04/03 09:34:03;;;;;;;;;18.50;16.50;;;;;;;;3545585;39;113963;-72
2021/04/03 09:36:41;;;;;;;;;17.75;14.50;;;;;;;;3544150;39;114438;-74
2021/04/03 09:39:11;;;;;;;;;15.75;15.75;;;;;;;;3545231;39;112909;-73
2021/04/03 09:41:44;;;;;;;;;15.75;15.75;;;;;;;;3545055;39;113701;-72
2021/04/03 09:44:11;;;;;;;;;16.25;14.75;;;;;;;;3547156;39;113973;-72
2021/04/03 09:46:37;;;;;;;;;18.25;17.50;;;;;;;;3545281;39;113522;-72
2021/04/03 09:49:03;;;;;;;;;19.00;16.00;;;;;;;;3545087;39;113946;-74
2021/04/03 09:51:29;;;;;;;;;16.75;15.75;;;;;;;;3544692;39;112197;-73
2021/04/03 09:53:55;;;;;;;;;15.50;14.25;;;;;;;;3546003;39;113775;-74
2021/04/03 09:56:21;;;;;;;;;16.25;14.75;;;;;;;;3543902;39;114015;-73
2021/04/03 09:58:47;;;;;;;;;14.25;12.75;;;;;;;;3545811;39;111896;-74
2021/04/03 10:01:14;;;;;;;;;13.50;13.00;;;;;;;;3544896;39;114073;-73
2021/04/03 10:03:40;;;;;;;;;13.25;12.75;;;;;;;;3544417;39;114990;-79
2021/04/03 10:06:06;;;;;;;;;11.50;11.50;;;;;;;;3548038;39;112492;-73
2021/04/03 10:08:32;;;;;;;;;12.75;11.50;;;;;;;;3544014;39;114445;-75
2021/04/03 10:10:58;;;;;;;;;10.67;10.67;;;;;;;;3545588;39;112391;-75
2021/04/03 10:13:24;;;;;;;;;15.00;13.00;;;;;;;;3544263;39;113457;-74
2021/04/03 10:15:51;;;;;;;;;12.33;10.33;;;;;;;;3545312;39;114129;-77
2021/04/03 10:18:18;;;;;;;;;13.00;12.67;;;;;;;;3544935;39;112067;-75
2021/04/03 10:20:44;;;;;;;;;9.33;9.33;;;;;;;;3546042;39;112159;-79
2021/04/03 10:23:11;;;;;;;;;11.00;11.00;;;;;;;;3544746;39;113918;-78
2021/04/03 10:25:37;;;;;;;;;13.67;12.67;;;;;;;;3545331;39;112176;-80
2021/04/03 10:28:03;;;;;;;;;14.67;13.00;;;;;;;;3547962;39;113870;-83
2021/04/03 10:30:29;;;;;;;;;13.00;11.50;;;;;;;;3545095;39;111751;-79
2021/04/03 10:32:57;;;;;;;;;21.00;19.25;;;;;;;;3546629;39;113612;-82
2021/04/03 10:35:24;;;;;;;;;13.25;12.25;;;;;;;;3546540;39;114361;-74
2021/04/03 10:37:50;;;;;;;;;15.25;14.50;;;;;;;;3544216;39;112169;-76
2021/04/03 10:40:16;;;;;;;;;14.50;13.25;;;;;;;;3545316;39;113527;-74
2021/04/03 10:42:43;;;;;;;;;15.25;14.00;;;;;;;;3544282;39;114560;-71
2021/04/03 10:45:09;;;;;;;;;15.00;14.25;;;;;;;;3544742;39;111811;-76
2021/04/03 10:47:35;;;;;;;;;15.75;14.75;;;;;;;;3545624;39;113587;-73
2021/04/03 10:50:01;;;;;;;;;17.00;14.75;;;;;;;;3546371;39;113952;-72
2021/04/03 10:52:28;;;;;;;;;17.25;16.00;;;;;;;;3545663;39;113740;-71
2021/04/03 10:54:55;;;;;;;;;15.00;15.00;;;;;;;;3543498;39;116429;-71
2021/04/03 10:57:23;;;;;;;;;17.75;17.25;;;;;;;;3545669;39;112265;-72
2021/04/03 10:59:49;;;;;;;;;15.25;15.25;;;;;;;;3544412;39;113945;-71
2021/04/03 11:02:15;;;;;;;;;16.25;16.25;;;;;;;;3543460;39;114097;-74
2021/04/03 11:04:41;;;;;;;;;18.75;15.00;;;;;;;;3545021;39;111879;-76
2021/04/03 11:07:08;;;;;;;;;19.00;18.50;;;;;;;;3544884;39;113422;-75
2021/04/03 11:09:35;;;;;;;;;17.25;16.75;;;;;;;;3542627;39;114280;-75
2021/04/03 11:12:01;;;;;;;;;19.75;19.75;;;;;;;;3547108;39;112311;-78
2021/04/03 11:14:28;;;;;;;;;16.50;16.25;;;;;;;;3543288;39;113913;-74
2021/04/03 11:16:54;;;;;;;;;18.75;16.50;;;;;;;;3543771;39;112245;-75
2021/04/03 11:19:40;;;;;;;;;18.75;16.00;;;;;;;;3545020;39;113592;-75
2021/04/03 11:22:17;;;;;;;;;19.25;18.25;;;;;;;;3543596;39;115753;-76
2021/04/03 11:24:44;;;;;;;;;18.75;17.00;;;;;;;;3544206;39;112406;-75
2021/04/03 11:27:10;;;;;;;;;18.00;18.00;;;;;;;;3546477;39;113728;-74
2021/04/03 11:29:36;;;;;;;;;20.00;18.25;;;;;;;;3545710;39;114170;-74
2021/04/03 11:32:02;;;;;;;;;16.00;15.25;;;;;;;;3547038;39;111864;-74
2021/04/03 11:34:28;;;;;;;;;17.75;14.50;;;;;;;;3546008;39;114442;-74
2021/04/03 11:36:54;;;;;;;;;17.75;17.25;;;;;;;;3544584;39;112768;-74
2021/04/03 11:39:20;;;;;;;;;18.00;16.50;;;;;;;;3546694;39;113488;-73
2021/04/03 11:41:47;;;;;;;;;17.75;16.25;;;;;;;;3545499;39;114782;-81
2021/04/03 11:44:13;;;;;;;;;18.50;18.50;;;;;;;;3544839;39;113757;-76
2021/04/03 11:46:39;;;;;;;;;20.00;18.00;;;;;;;;3545941;39;113474;-76
2021/04/03 11:49:05;;;;;;;;;18.75;17.50;;;;;;;;3545715;39;114077;-75
2021/04/03 11:51:31;;;;;;;;;17.25;17.25;;;;;;;;3545188;39;112249;-76
2021/04/03 11:53:57;;;;;;;;;18.00;16.25;;;;;;;;3547672;39;113531;-76
2021/04/03 11:56:24;;;;;;;;;14.00;13.50;;;;;;;;3546001;39;111913;-73
2021/04/03 11:58:50;;;;;;;;;16.00;14.75;;;;;;;;3545801;39;113675;-75
2021/04/03 12:01:16;;;;;;;;;16.25;15.75;;;;;;;;3545218;39;116197;-76
2021/04/03 12:03:42;;;;;;;;;15.75;14.25;;;;;;;;3547874;39;112009;-76
2021/04/03 12:06:09;;;;;;;;;16.50;13.50;;;;;;;;3549071;39;114884;-76
2021/04/03 12:08:35;;;;;;;;;15.75;14.25;;;;;;;;3548922;39;113984;-75
2021/04/03 12:11:01;;;;;;;;;13.50;13.50;;;;;;;;3549131;39;113175;-77
2021/04/03 12:13:27;;;;;;;;;16.00;14.75;;;;;;;;3549693;39;113706;-74
2021/04/03 12:15:54;;;;;;;;;13.50;13.25;;;;;;;;3548101;39;114027;-73
2021/04/03 12:18:20;;;;;;;;;13.50;13.50;;;;;;;;3545916;39;113591;-72
2021/04/03 12:20:46;;;;;;;;;17.25;16.00;;;;;;;;3543973;39;114581;-76
2021/04/03 12:23:12;;;;;;;;;28.50;25.75;;;;;;;;3545333;39;112177;-72
2021/04/03 12:25:38;;;;;;;;;20.50;20.00;;;;;;;;3547657;39;113511;-75
2021/04/03 12:28:07;;;;;;;;;22.00;21.75;;;;;;;;3545703;39;114058;-76
2021/04/03 12:30:33;;;;;;;;;23.75;21.00;;;;;;;;3548530;39;111958;-78
2021/04/03 12:33:01;;;;;;;;;20.75;17.75;;;;;;;;3545930;39;113469;-77
2021/04/03 12:40:18;;;;;;;;;22.25;21.50;;;;;;;;3560909;39;881632;-77
2021/04/03 12:42:44;;;;;;;;;28.50;28.50;;;;;;;;3575947;39;113673;-77
2021/04/03 12:45:11;;;;;;;;;35.25;32.00;;;;;;;;3571953;39;112478;-75
2021/04/03 12:47:37;;;;;;;;;22.50;20.00;;;;;;;;3576989;39;113700;-73
2021/04/03 12:50:04;;;;;;;;;23.75;21.00;;;;;;;;3575179;39;113977;-75
2021/04/03 12:52:30;;;;;;;;;28.00;24.50;;;;;;;;3573780;39;112064;-75
2021/04/03 12:54:56;;;;;;;;;27.00;23.25;;;;;;;;3575164;39;114288;-73
2021/04/03 12:57:23;;;;;;;;;21.75;17.50;;;;;;;;3574762;39;114151;-75
2021/04/03 12:59:49;;;;;;;;;22.75;20.75;;;;;;;;3579078;39;111778;-76
2021/04/03 13:02:16;;;;;;;;;18.00;17.25;;;;;;;;3575237;39;114085;-77
2021/04/03 13:04:42;;;;;;;;;15.50;15.50;;;;;;;;3575865;39;111903;-77
2021/04/03 13:07:09;;;;;;;;;14.00;14.00;;;;;;;;3575873;39;112245;-75
2021/04/03 13:09:36;;;;;;;;;15.75;14.25;;;;;;;;3576317;39;114499;-76
2021/04/03 13:12:02;;;;;;;;;13.50;13.25;;;;;;;;3579301;39;112292;-75
2021/04/03 13:14:29;;;;;;;;;17.50;17.50;;;;;;;;3577202;39;112337;-77
2021/04/03 13:16:55;;;;;;;;;17.75;17.50;;;;;;;;3579744;39;114411;-76
2021/04/03 13:19:21;;;;;;;;;16.50;16.50;;;;;;;;3580581;39;112265;-77
2021/04/03 13:21:47;;;;;;;;;18.25;17.00;;;;;;;;3580803;39;113165;-74
2021/04/03 13:24:13;;;;;;;;;17.75;16.75;;;;;;;;3576303;39;111939;-75
2021/04/03 13:26:39;;;;;;;;;15.00;15.00;;;;;;;;3577933;39;113420;-76
2021/04/03 13:29:05;;;;;;;;;13.75;13.75;;;;;;;;3576277;39;114035;-76
2021/04/03 13:31:32;;;;;;;;;12.50;12.50;;;;;;;;3576028;39;111845;-75
2021/04/03 13:33:58;;;;;;;;;13.25;12.75;;;;;;;;3577164;39;113345;-73
2021/04/03 13:36:24;;;;;;;;;14.00;12.00;;;;;;;;3576541;39;113771;-72
2021/04/03 13:38:50;;;;;;;;;13.00;12.25;;;;;;;;3581109;39;111881;-71
2021/04/03 13:41:18;;;;;;;;;12.25;12.25;;;;;;;;3577403;39;113388;-76
2021/04/03 13:43:44;;;;;;;;;13.25;11.75;;;;;;;;3581525;39;114152;-72
2021/04/03 13:46:11;;;;;;;;;15.75;13.00;;;;;;;;3576605;39;113570;-73
2021/04/03 13:48:38;;;;;;;;;13.00;11.00;;;;;;;;3575655;39;113907;-73
2021/04/03 13:51:04;;;;;;;;;12.00;9.00;;;;;;;;3571189;39;112786;-73
2021/04/03 13:53:31;;;;;;;;;11.00;11.00;;;;;;;;3568925;39;113608;-72
2021/04/03 13:55:57;;;;;;;;;15.00;10.50;;;;;;;;3569866;39;113750;-72
2021/04/03 13:58:23;;;;;;;;;12.00;12.00;;;;;;;;3569011;39;112187;-70
2021/04/03 14:00:49;;;;;;;;;9.25;8.75;;;;;;;;3571233;39;113728;-71
2021/04/03 14:03:16;;;;;;;;;10.75;9.25;;;;;;;;3569956;39;114043;-76
2021/04/03 14:05:44;;;;;;;;;12.00;12.00;;;;;;;;3572328;39;111960;-75
2021/04/03 14:08:10;;;;;;;;;14.00;10.75;;;;;;;;3569328;39;113958;-71